Linda — OJML — position and weather

sailwx.info

Track history (hours):
 
Tides and Currents Weather Stations Pressure Air Temp Water Temp Dewpoint Dewpoint Depression Visibility Wind Speed Wind Dir Waves Ship Positions

Linda

Last reported at 2016-Sep-27 00:28 UTC. Time now 2016-Sep-27 08:49 UTC.
Position N 54°42' W 001°05'.

Length 141 m; draft 8.4 m.

Type: Ship (hazmat cat A). MMSI: 230984000.

Date/timePositionNaut miles runAvg speedWind from/ knotsBaromVisibWave heightAir tempDewpointWater temp
2016-Sep-27 00:28N 54°42' W 001°05'0 0.0
2016-Sep-26 20:30N 54°42' W 001°05'0 0.0
2016-Sep-26 19:32N 54°42' W 001°05'23 5.7
2016-Sep-26 15:29N 54°31' W 000°30'2310.4
2016-Sep-26 13:15N 54°42' W 001°05'1 0.2
2016-Sep-26 08:23N 54°42' W 001°03'12 2.1
2016-Sep-26 02:33N 54°48' W 000°45'41514.3
2016-Sep-24 21:32N 57°47' E 010°30'2713.9
2016-Sep-24 19:33N 57°34' E 011°15'1615.6
2016-Sep-24 18:34N 57°21' E 011°31'1716.7
2016-Sep-24 17:33N 57°05' E 011°41'1716.6
2016-Sep-24 16:33N 56°50' E 011°52'9314.6
2016-Sep-24 10:09N 55°21' E 011°03'914.9
2016-Sep-24 09:33N 55°12' E 011°06'55 9.1
2016-Sep-24 03:31N 54°34' E 012°15'12015.1
2016-Sep-23 19:33N 55°39' E 015°13'328 7.4
2016-Sep-21 23:18N 59°28' E 022°29'1114.7
2016-Sep-21 22:33N 59°33' E 022°49'4615.1
2016-Sep-21 19:31N 59°48' E 024°15'77 1.7
2016-Sep-19 23:15N 60°01' E 026°46'4411.3
2016-Sep-19 19:19N 60°08' E 028°13'911.7
2016-Sep-19 18:32N 60°04' E 028°29'37 6.1
2016-Sep-19 12:29N 60°00' E 029°43'0 0.0
2016-Sep-19 09:05N 60°00' E 029°43'0 0.0
2016-Sep-19 07:17N 60°00' E 029°43'0 0.0
2016-Sep-19 06:29N 60°00' E 029°43'14 4.6
2016-Sep-19 03:33N 60°02' E 029°16'1414.6
2016-Sep-19 02:33N 60°02' E 028°47'2914.5
2016-Sep-19 00:33N 60°10' E 027°51'13314.7
2016-Sep-18 15:30N 59°35' E 023°35'  
Track history (hours):
 
Tides and Currents Weather Stations Pressure Air Temp Water Temp Dewpoint Dewpoint Depression Visibility Wind Speed Wind Dir Waves Ship Positions

Linda

Last reported at 2016-Sep-27 00:28 UTC. Time now 2016-Sep-27 08:49 UTC.
Position N 54°42' W 001°05'.

Length 141 m; draft 8.4 m.

Type: Ship (hazmat cat A). MMSI: 230984000.

Date/timePositionNaut miles runAvg speedWind from/ knotsBaromVisibWave heightAir tempDewpointWater temp
2016-Sep-27 00:28N 54°42' W 001°05'0 0.0
2016-Sep-26 20:30N 54°42' W 001°05'0 0.0
2016-Sep-26 19:32N 54°42' W 001°05'23 5.7
2016-Sep-26 15:29N 54°31' W 000°30'2310.4
2016-Sep-26 13:15N 54°42' W 001°05'1 0.2
2016-Sep-26 08:23N 54°42' W 001°03'12 2.1
2016-Sep-26 02:33N 54°48' W 000°45'41514.3
2016-Sep-24 21:32N 57°47' E 010°30'2713.9
2016-Sep-24 19:33N 57°34' E 011°15'1615.6
2016-Sep-24 18:34N 57°21' E 011°31'1716.7
2016-Sep-24 17:33N 57°05' E 011°41'1716.6
2016-Sep-24 16:33N 56°50' E 011°52'9314.6
2016-Sep-24 10:09N 55°21' E 011°03'914.9
2016-Sep-24 09:33N 55°12' E 011°06'55 9.1
2016-Sep-24 03:31N 54°34' E 012°15'12015.1
2016-Sep-23 19:33N 55°39' E 015°13'328 7.4
2016-Sep-21 23:18N 59°28' E 022°29'1114.7
2016-Sep-21 22:33N 59°33' E 022°49'4615.1
2016-Sep-21 19:31N 59°48' E 024°15'77 1.7
2016-Sep-19 23:15N 60°01' E 026°46'4411.3
2016-Sep-19 19:19N 60°08' E 028°13'911.7
2016-Sep-19 18:32N 60°04' E 028°29'37 6.1
2016-Sep-19 12:29N 60°00' E 029°43'0 0.0
2016-Sep-19 09:05N 60°00' E 029°43'0 0.0
2016-Sep-19 07:17N 60°00' E 029°43'0 0.0
2016-Sep-19 06:29N 60°00' E 029°43'14 4.6
2016-Sep-19 03:33N 60°02' E 029°16'1414.6
2016-Sep-19 02:33N 60°02' E 028°47'2914.5
2016-Sep-19 00:33N 60°10' E 027°51'13314.7
2016-Sep-18 15:30N 59°35' E 023°35'  

Dump ship's entire track history